My Meet Scores
Payton Judd, Flipstar Gymnastics Center - MyMeetScores.com
Top100 | Top Teams | Upcoming Meets | Completed Meets | Latest | Add Scores | Help| Support | Bookmark and Share

Payton Judd, Flipstar Gymnastics Center
Personal Bests
LevelVault BarsBeamFloorAA
39.6759.400 9.6759.37537.675
49.4509.575 9.4509.27537.475
69.2259.300 9.3509.42536.675
79.4759.600 9.5259.70037.525
Meet Scores
Date Meet Team Session Level Division Vault Bars Beam Floor AA
2020-01-30 Circle of Stars Flipstar Gymnastics Center C07 7 Jr B 8.850 6T 9.525 2 9.075 9 9.475 3 36.925 5
2020-01-24 King Arthur Invitational Flipstar Gymnastics Academy 2 7 JR B 8.900 6T 9.100 6 8.725 9 9.275 7T 36.000 7
2019-12-13 Crossroads Classic Flipstar Gymnastics Academy 5 7 Junior 9.350 2 9.325 4T 8.900 11 9.475 2T 37.050 2
2019-12-07 Home for the Holidays 2019 Flipstar Gymnastics Academy 6 7 Middle 9.025 3 8.100 8 7.525 9 9.700 1T 34.350 9
2019-03-29 Illinois Level 7 & 8 State Meet Flipstar Gymnastics Academy 6 7 Jr B 9.075 11T 9.600 4T 9.200 15T 9.450 12T 37.325 9
2019-03-01 2019 MEGA Spring Invite Flipstar Gymnastics Academy All 7 All Ages 9.400 8T 9.075 18T 9.525 10 9.525 6T 37.525 5
2019-02-23 Kinetic Classic 2019 Flipstar Gymnastics Academy 1 7 Younger 8.850 9 8.400 12T 9.500 3 9.450 1 36.200 7
2019-02-08 Midwest Twisters Harley Meet Womens Flipstar Gymnastics Academy O02 7 11 un 8.800 7T 9.450 1 9.200 2 9.475 2 36.925 1
2019-01-11 Circle of Stars Gymnastics Flipstar Gymnastics Academy B03 7 Junior B 9.475 1 9.400 2 9.000 5 9.200 2T 37.075 2
2018-12-07 Horton Invite Flipstar Gymnastics Academy All 7 Ch 9.100 2 8.975 7 9.100 6 9.450 1T 36.625 3
2018-02-23 Kinetic Classic Flipstar Gymnastics Academy 9 6 Younger 9.150 18 9.300 15T 8.850 46T 9.375 30T 36.675 23
2018-02-16 Big Classic Flipstar Gymnastics Academy 1A 6 Junior A 9.000 3 8.125 13 8.700 14 9.400 4 35.225 12
2018-02-09 IGI Chicago Style Gymnastics Meet Flipstar Gymnastics Academy 1 6 111 State L6 A 9.100 5 9.150 8 8.950 15 9.075 16 36.275 7
2018-01-26 King Arthur Invitational Flipstar Gymnastics Academy 1 6 JR 8.550 15T 8.200 12T 9.300 3 9.225 9T 35.275 11T
2017-12-08 Horton Invite At IWU Shirk Center Flipstar Gymnastics Academy All 6 Ch 8.800 9T 8.500 11 9.225 10 9.425 8 35.950 10
2017-11-17 SCGA Classic Flipstar Gymnastics Academy 3 6 JrA 9.225 3 8.950 3 9.350 2 9.150 8 36.675 2
2017-02-24 Kinetic Classic Flipstar Gymnastics Academy 5,6 4 All Ages 9.200 18T 9.575 9T 9.125 60T 9.275 25T 37.175 11T
2017-02-17 Big Classic Flipstar Gymnastics Academy B 4 Child B 9.300 1T 9.400 6T 9.300 9T 9.075 11 37.075 3
2017-02-10 IGI Chicago Style Gymnastics Meet Flipstar Gymnastics Academy 633L 4 JrA 9.450 1 9.500 2 9.450 8 9.075 10 37.475 2
2016-12-09 Horton Invitational Flipstar Gymnastics Academy 2 4 JrB 9.450 1 8.950 4 9.050 7 9.100 4 36.550 1
2016-11-11 2016 Illinois Judges Cup Flipstar Gymnastics Academy R4 4 8 and Unde 8.950 2 8.475 6 9.050 4T 9.050 6 35.525 2
2016-03-04 2016 Illinois Level 3 State Championships Flipstar Gymnastics Academy 3 Youth-A 9.675 5 9.350 4 9.275 1 9.375 4 37.675 1
2016-01-22 King Arthur Invitational Flipstar Gymnastics Academy S13 3 Jr.A 9.350 2 9.400 1 9.675 1 9.150 1 37.575 1
Get your scores on
a t-shirt, pin, or hoodie

www.lazysuits.com